Portada
METAR-TAF:

METAR-TAF

Aeropuertos :

Olney-Noble Airport

Olney-Noble, Illinois, Estados Unidos

latitud: 38-43-19N, longitud: 088-10-35W, altitud: 147 m

Observación

El informe se hizo hace 21 minutos, a las 08:35 UTC
Viento calma
Temperatura 21°C
Humedad 94%
Presión 1015 hPa
Visibilidad: 11.3 km
Cielo despejado

METAR: KOLY 060835Z AUTO 00000KT 7SM CLR 21/20 A2996 RMK AO2 T02090203

Hora: 03:56 (08:56 UTC)


TAF: falta

Observaciones y pronósticos meteorológicos de más de 4000 aeropuertos (mensajes METAR y TAF).

Los puntos amarillos y rojos representan las estaciones disponibles.

Ponga el ratón en el punto deseado para ver el nombre de la estación.

Haga clic para ver las observaciones y los pronósticos meteorológicos.

Para cambiar el mapa : haga clic en los botones verdes con una cruz de color negro para hacer un zoom, en el botón verde con un guión para alejar o en las flechas verdes para mapas adyacentes.


METAR-TAF: